Terminal Aerodrome Forecast
Issued by NWS St Louis, MO

Home | Current Version | Previous Version | Text Only | Print | Product List | Glossary On
Versions: 1 2 3 4 5 6 7 8 9 10 11 12 13 14 15 16 17 18 19 20 21 22 23 24 25 26 27 28
470
FTUS43 KLSX 181504 AAA
TAFSTL
TAF AMD
KSTL 181504Z 1815/1918 23005KT P6SM OVC016
     FM182000 18005KT P6SM BKN020
     FM182300 16004KT P6SM BKN080
     FM190800 VRB03KT P6SM OVC025
     FM191000 11004KT 5SM -SHRA BR SCT008 OVC015
     FM191200 11004KT 4SM -SHRA BR OVC008=

USA.gov is the U.S. government's official web portal to all federal, state and local government web resources and services.